createdAt,value
2022-11-29T00:00:30.168Z,100427.64
2022-11-29T00:02:59.983Z,100428.83
2022-11-29T00:05:30.558Z,100426.00
2022-11-29T00:08:00.470Z,100430.27
2022-11-29T00:10:30.261Z,100427.29
2022-11-29T00:13:00.110Z,100426.09
2022-11-29T00:15:29.912Z,100416.45
2022-11-29T00:18:00.034Z,100424.23
2022-11-29T00:20:29.911Z,100425.30
2022-11-29T00:23:01.054Z,100426.16
2022-11-29T00:25:30.843Z,100422.94
2022-11-29T00:28:00.723Z,100425.98
2022-11-29T00:30:30.877Z,100425.72
2022-11-29T00:33:03.115Z,100421.46
2022-11-29T00:35:33.587Z,100426.50
2022-11-29T00:38:03.661Z,100421.00
2022-11-29T00:40:33.802Z,100426.91
2022-11-29T00:43:03.814Z,100420.82
2022-11-29T00:45:33.734Z,100423.22
2022-11-29T00:48:03.898Z,100420.49
2022-11-29T00:50:33.677Z,100424.08
2022-11-29T00:53:07.692Z,100422.52
2022-11-29T00:55:37.492Z,100417.42
2022-11-29T00:58:07.482Z,100421.21
2022-11-29T01:00:37.664Z,100413.27
2022-11-29T01:03:07.375Z,100417.77
2022-11-29T01:05:37.245Z,100419.41
2022-11-29T01:08:07.269Z,100421.33
2022-11-29T01:10:37.156Z,100422.30
2022-11-29T01:13:07.239Z,100414.55
2022-11-29T01:15:37.632Z,100420.36
2022-11-29T01:18:07.164Z,100418.44
2022-11-29T01:20:36.993Z,100424.52
2022-11-29T01:23:06.992Z,100424.52
2022-11-29T01:25:36.819Z,100427.34
2022-11-29T01:28:06.833Z,100429.84
2022-11-29T01:30:38.530Z,100425.81
2022-11-29T01:33:08.346Z,100417.98
2022-11-29T01:35:38.167Z,100414.60
2022-11-29T01:38:07.838Z,100419.94
2022-11-29T01:40:37.690Z,100423.51
2022-11-29T01:43:16.584Z,100417.73
2022-11-29T01:45:50.250Z,100421.89
2022-11-29T01:48:21.520Z,100423.29
2022-11-29T01:50:51.854Z,100421.38
2022-11-29T01:53:22.424Z,100429.22
2022-11-29T01:55:57.772Z,100425.44
2022-11-29T01:58:28.360Z,100428.69
2022-11-29T02:00:59.812Z,100427.06
2022-11-29T02:03:29.952Z,100422.18
2022-11-29T02:06:00.537Z,100416.61
2022-11-29T02:08:36.615Z,100416.61
2022-11-29T02:11:46.752Z,100414.38
2022-11-29T02:14:33.813Z,100422.60
2022-11-29T02:17:06.682Z,100415.11
2022-11-29T02:19:45.471Z,100421.92
2022-11-29T02:22:33.075Z,100418.96
2022-11-29T02:25:08.909Z,100418.97
2022-11-29T02:28:05.419Z,100423.55
2022-11-29T02:30:47.189Z,100420.03
2022-11-29T02:33:32.035Z,100424.36
2022-11-29T02:36:11.068Z,100424.30
2022-11-29T02:38:49.981Z,100434.90
2022-11-29T02:41:56.019Z,100427.01
2022-11-29T02:44:34.634Z,100424.26
2022-11-29T02:47:10.302Z,100433.42
2022-11-29T02:49:55.059Z,100438.82
2022-11-29T02:52:36.647Z,100438.82
2022-11-29T02:55:09.791Z,100438.67
2022-11-29T02:57:51.872Z,100439.67
2022-11-29T03:00:23.480Z,100435.16
2022-11-29T03:03:10.906Z,100447.23
2022-11-29T03:05:52.358Z,100446.55
2022-11-29T03:08:56.499Z,100447.86
2022-11-29T03:11:37.936Z,100446.36
2022-11-29T03:14:30.039Z,100446.36
2022-11-29T03:17:15.163Z,100456.20
2022-11-29T03:20:03.740Z,100456.83
2022-11-29T03:22:51.038Z,100456.03
2022-11-29T03:25:58.932Z,100456.59
2022-11-29T03:28:31.872Z,100454.37
2022-11-29T03:31:21.216Z,100459.84
2022-11-29T03:33:54.063Z,100460.58
2022-11-29T03:36:45.369Z,100460.92
2022-11-29T03:39:21.776Z,100463.02
2022-11-29T03:41:54.490Z,100464.72
2022-11-29T03:44:38.519Z,100459.20
2022-11-29T03:47:13.875Z,100459.26
2022-11-29T03:49:58.692Z,100461.70
2022-11-29T03:52:56.003Z,100458.98
2022-11-29T03:55:50.472Z,100465.00
2022-11-29T03:58:28.770Z,100461.89
2022-11-29T04:01:07.288Z,100457.06
2022-11-29T04:03:59.765Z,100458.23
2022-11-29T04:06:41.689Z,100457.09
2022-11-29T04:09:20.399Z,100462.05
2022-11-29T04:12:05.271Z,100458.27
2022-11-29T04:14:54.889Z,100462.44
2022-11-29T04:17:39.755Z,100463.30
2022-11-29T04:20:48.377Z,100465.09
2022-11-29T04:23:29.456Z,100468.81
2022-11-29T04:26:08.036Z,100475.16
2022-11-29T04:28:40.884Z,100475.16
2022-11-29T04:31:31.284Z,100473.73
2022-11-29T04:34:20.183Z,100483.28
2022-11-29T04:37:17.032Z,100477.66
2022-11-29T04:40:04.839Z,100486.01
2022-11-29T04:42:46.487Z,100484.77
2022-11-29T04:45:30.900Z,100487.59
2022-11-29T04:48:10.221Z,100487.66
2022-11-29T04:50:43.054Z,100493.98
2022-11-29T04:53:15.559Z,100494.22
2022-11-29T04:56:00.458Z,100494.11
2022-11-29T04:58:48.580Z,100488.05
2022-11-29T05:01:24.725Z,100491.56
2022-11-29T05:04:21.837Z,100489.36
2022-11-29T05:07:13.740Z,100490.19
2022-11-29T05:09:49.621Z,100490.19
2022-11-29T05:12:40.188Z,100499.28
2022-11-29T05:15:32.578Z,100496.05
2022-11-29T05:18:23.644Z,100499.01
2022-11-29T05:21:05.225Z,100496.39
2022-11-29T05:23:54.560Z,100496.69
2022-11-29T05:26:50.055Z,100499.91
2022-11-29T05:29:43.636Z,100505.37
2022-11-29T05:32:22.066Z,100507.08
2022-11-29T05:35:31.348Z,100508.39
2022-11-29T05:38:10.427Z,100510.94
2022-11-29T05:40:43.568Z,100504.05
2022-11-29T05:43:49.770Z,100513.20
2022-11-29T05:46:31.332Z,100514.46
2022-11-29T05:49:09.826Z,100519.27
2022-11-29T05:52:01.963Z,100522.84
2022-11-29T05:54:37.835Z,100522.86
2022-11-29T05:57:19.001Z,100525.92
2022-11-29T05:59:51.191Z,100532.33
2022-11-29T06:02:48.641Z,100532.05
2022-11-29T06:05:24.492Z,100535.96
2022-11-29T06:08:15.335Z,100537.30
2022-11-29T06:10:53.726Z,100541.75
2022-11-29T06:13:29.292Z,100545.81
2022-11-29T06:16:27.643Z,100545.81
2022-11-29T06:19:32.275Z,100544.59
2022-11-29T06:22:25.861Z,100544.09
2022-11-29T06:25:21.598Z,100547.72
2022-11-29T06:28:11.346Z,100552.28
2022-11-29T06:31:02.211Z,100558.97
2022-11-29T06:33:55.798Z,100565.78
2022-11-29T06:36:35.278Z,100560.56
2022-11-29T06:39:06.754Z,100564.95
2022-11-29T06:41:36.912Z,100566.92
2022-11-29T06:44:07.535Z,100564.98
2022-11-29T06:46:52.231Z,100570.03
2022-11-29T06:49:27.993Z,100570.03
2022-11-29T06:52:15.688Z,100570.05
2022-11-29T06:54:51.086Z,100570.05
2022-11-29T06:57:32.981Z,100576.85
2022-11-29T07:00:08.815Z,100576.19
2022-11-29T07:02:47.199Z,100575.80
2022-11-29T07:05:22.839Z,100579.06
2022-11-29T07:07:55.700Z,100579.31
2022-11-29T07:10:27.709Z,100579.97
2022-11-29T07:12:58.061Z,100579.97
2022-11-29T07:15:28.269Z,100575.45
2022-11-29T07:18:03.848Z,100579.09
2022-11-29T07:20:36.969Z,100581.52
2022-11-29T07:23:15.961Z,100576.85
2022-11-29T07:26:11.907Z,100585.31
2022-11-29T07:29:01.795Z,100582.42
2022-11-29T07:31:37.483Z,100585.21
2022-11-29T07:34:36.195Z,100584.59
2022-11-29T07:37:32.080Z,100582.53
2022-11-29T07:40:04.650Z,100585.20
2022-11-29T07:42:55.783Z,100586.83
2022-11-29T07:45:36.156Z,100588.88
2022-11-29T07:48:07.072Z,100596.13
2022-11-29T07:50:36.950Z,100592.28
2022-11-29T07:53:06.923Z,100593.42
2022-11-29T07:55:37.369Z,100597.23
2022-11-29T07:58:07.091Z,100596.39
2022-11-29T08:00:36.904Z,100598.09
2022-11-29T08:03:07.276Z,100599.97
2022-11-29T08:05:38.468Z,100605.20
2022-11-29T08:08:08.578Z,100606.34
2022-11-29T08:10:39.145Z,100604.56
2022-11-29T08:13:08.684Z,100604.56
2022-11-29T08:15:39.975Z,100606.28
2022-11-29T08:18:09.758Z,100602.89
2022-11-29T08:20:41.741Z,100606.91
2022-11-29T08:23:13.637Z,100609.41
2022-11-29T08:25:43.695Z,100609.41
2022-11-29T08:28:13.555Z,100605.20
2022-11-29T08:30:43.401Z,100613.11
2022-11-29T08:33:13.248Z,100614.09
2022-11-29T08:35:43.047Z,100607.00
2022-11-29T08:38:12.823Z,100607.00
2022-11-29T08:40:42.620Z,100614.48
2022-11-29T08:43:12.460Z,100618.14
2022-11-29T08:45:42.318Z,100620.97
2022-11-29T08:48:13.688Z,100616.55
2022-11-29T08:50:43.494Z,100619.69
2022-11-29T08:53:31.153Z,100624.63
2022-11-29T08:56:08.492Z,100626.75
2022-11-29T08:58:33.561Z,100628.27
2022-11-29T09:01:03.480Z,100632.02
2022-11-29T09:03:53.207Z,100631.50
2022-11-29T09:06:22.950Z,100627.45
2022-11-29T09:08:52.739Z,100626.28
2022-11-29T09:11:23.530Z,100631.77
2022-11-29T09:13:56.599Z,100634.88
2022-11-29T09:16:29.048Z,100632.95
2022-11-29T09:18:59.143Z,100635.56
2022-11-29T09:21:31.535Z,100636.03
2022-11-29T09:24:05.689Z,100636.09
2022-11-29T09:26:38.190Z,100638.25
2022-11-29T09:29:08.344Z,100635.80
2022-11-29T09:31:38.737Z,100637.79
2022-11-29T09:34:08.569Z,100639.03
2022-11-29T09:36:38.356Z,100639.31
2022-11-29T09:39:09.858Z,100636.42
2022-11-29T09:42:03.591Z,100640.17
2022-11-29T09:44:53.118Z,100638.20
2022-11-29T09:47:37.095Z,100638.20
2022-11-29T09:50:24.873Z,100643.84
2022-11-29T09:53:06.757Z,100636.64
2022-11-29T09:56:02.266Z,100635.05
2022-11-29T09:58:37.063Z,100630.55
2022-11-29T10:01:09.887Z,100636.42
2022-11-29T10:03:46.458Z,100632.81
2022-11-29T10:06:27.823Z,100630.96
2022-11-29T10:09:03.293Z,100632.66
2022-11-29T10:11:36.157Z,100635.64
2022-11-29T10:14:18.130Z,100633.72
2022-11-29T10:17:08.626Z,100624.02
2022-11-29T10:19:41.800Z,100633.58
2022-11-29T10:22:19.890Z,100636.73
2022-11-29T10:24:53.051Z,100632.48
2022-11-29T10:27:26.254Z,100633.48
2022-11-29T10:29:56.739Z,100629.66
2022-11-29T10:32:28.406Z,100625.87
2022-11-29T10:35:00.356Z,100632.59
2022-11-29T10:37:32.887Z,100627.52
2022-11-29T10:40:07.723Z,100633.22
2022-11-29T10:42:52.625Z,100630.20
2022-11-29T10:45:31.655Z,100630.20
2022-11-29T10:48:19.311Z,100628.24
2022-11-29T10:50:51.028Z,100622.39
2022-11-29T10:53:27.040Z,100625.20
2022-11-29T10:56:12.092Z,100615.36
2022-11-29T10:58:57.133Z,100619.30
2022-11-29T11:01:29.090Z,100618.79
2022-11-29T11:04:03.384Z,100618.79
2022-11-29T11:06:48.486Z,100617.84
2022-11-29T11:09:30.031Z,100621.06
2022-11-29T11:12:02.655Z,100617.94
2022-11-29T11:14:37.504Z,100625.09
2022-11-29T11:17:26.420Z,100617.80
2022-11-29T11:20:00.711Z,100617.25
2022-11-29T11:22:32.567Z,100617.98
2022-11-29T11:25:13.855Z,100619.57
2022-11-29T11:27:43.769Z,100616.34
2022-11-29T11:30:28.104Z,100616.81
2022-11-29T11:33:17.216Z,100614.39
2022-11-29T11:36:06.564Z,100613.20
2022-11-29T11:38:41.386Z,100615.23
2022-11-29T11:41:22.826Z,100617.98
2022-11-29T11:43:55.990Z,100618.30
2022-11-29T11:46:47.491Z,100624.42
2022-11-29T11:49:32.111Z,100623.05
2022-11-29T11:52:02.571Z,100617.78
2022-11-29T11:54:32.763Z,100627.73
2022-11-29T11:57:02.522Z,100626.24
2022-11-29T11:59:32.289Z,100624.08
2022-11-29T12:02:02.119Z,100634.64
2022-11-29T12:04:38.074Z,100634.64
2022-11-29T12:07:13.373Z,100633.98
2022-11-29T12:09:52.076Z,100641.02
2022-11-29T12:12:30.757Z,100647.03
2022-11-29T12:15:21.640Z,100647.03
2022-11-29T12:17:54.458Z,100651.97
2022-11-29T12:20:28.248Z,100645.27
2022-11-29T12:23:16.434Z,100641.93
2022-11-29T12:25:55.336Z,100640.59
2022-11-29T12:28:30.652Z,100643.47
2022-11-29T12:31:20.242Z,100647.37
2022-11-29T12:34:02.248Z,100645.95
2022-11-29T12:36:40.900Z,100639.32
2022-11-29T12:39:13.635Z,100644.19
2022-11-29T12:41:53.784Z,100637.37
2022-11-29T12:44:40.285Z,100643.10
2022-11-29T12:47:36.131Z,100642.16
2022-11-29T12:49:56.491Z,100644.42
2022-11-29T12:52:38.702Z,100640.52
2022-11-29T12:55:20.494Z,100643.01
2022-11-29T12:58:04.695Z,100648.58
2022-11-29T13:00:37.861Z,100654.75
2022-11-29T13:03:10.481Z,100655.42
2022-11-29T13:05:58.190Z,100656.94
2022-11-29T13:08:30.999Z,100657.40
2022-11-29T13:11:19.905Z,100657.17
2022-11-29T13:17:00.567Z,100656.92
2022-11-29T13:19:42.636Z,100661.36
2022-11-29T13:22:21.191Z,100662.83
2022-11-29T13:24:57.089Z,100663.96
2022-11-29T13:27:30.241Z,100667.32
2022-11-29T13:30:01.990Z,100659.23
2022-11-29T13:32:43.873Z,100659.76
2022-11-29T13:35:19.313Z,100664.81
2022-11-29T13:38:06.704Z,100660.61
2022-11-29T13:41:00.912Z,100667.48
2022-11-29T13:43:42.752Z,100664.47
2022-11-29T13:46:20.861Z,100676.40
2022-11-29T13:48:54.025Z,100673.17
2022-11-29T13:51:35.399Z,100673.70
2022-11-29T13:54:09.251Z,100679.43
2022-11-29T13:56:48.326Z,100687.03
2022-11-29T13:59:24.029Z,100687.19
2022-11-29T14:01:54.856Z,100687.58
2022-11-29T14:04:28.009Z,100690.80
2022-11-29T14:07:19.717Z,100696.77
2022-11-29T14:10:07.992Z,100695.18
2022-11-29T14:12:46.646Z,100696.44
2022-11-29T14:15:32.094Z,100698.67
2022-11-29T14:18:06.257Z,100705.77
2022-11-29T14:20:44.984Z,100704.02
2022-11-29T14:23:17.835Z,100704.17
2022-11-29T14:26:03.241Z,100708.23
2022-11-29T14:28:36.552Z,100709.77
2022-11-29T14:31:09.299Z,100709.47
2022-11-29T14:33:51.323Z,100709.47
2022-11-29T14:36:48.133Z,100718.33
2022-11-29T14:39:27.277Z,100721.88
2022-11-29T14:42:06.501Z,100713.62
2022-11-29T14:44:39.300Z,100718.09
2022-11-29T14:47:29.070Z,100726.34
2022-11-29T14:50:01.378Z,100728.44
2022-11-29T14:52:43.220Z,100727.06
2022-11-29T14:55:24.054Z,100724.89
2022-11-29T14:58:06.275Z,100732.34
2022-11-29T15:00:50.571Z,100729.95
2022-11-29T15:03:32.460Z,100735.27
2022-11-29T15:06:08.647Z,100732.34
2022-11-29T15:08:48.000Z,100731.84
2022-11-29T15:11:26.174Z,100731.75
2022-11-29T15:14:08.665Z,100736.17
2022-11-29T15:16:47.533Z,100738.48
2022-11-29T15:19:36.653Z,100744.41
2022-11-29T15:22:18.931Z,100752.99
2022-11-29T15:25:01.123Z,100752.99
2022-11-29T15:27:31.248Z,100749.73
2022-11-29T15:30:21.999Z,100749.20
2022-11-29T15:32:51.669Z,100755.08
2022-11-29T15:35:22.373Z,100755.08
2022-11-29T15:37:54.266Z,100755.63
2022-11-29T15:40:28.476Z,100755.34
2022-11-29T15:43:01.994Z,100757.20
2022-11-29T15:45:37.948Z,100761.11
2022-11-29T15:48:19.820Z,100762.11
2022-11-29T15:50:58.171Z,100754.02
2022-11-29T15:53:43.377Z,100764.81
2022-11-29T15:56:32.489Z,100767.69
2022-11-29T15:59:05.168Z,100774.16
2022-11-29T16:01:35.960Z,100776.34
2022-11-29T16:04:06.804Z,100770.11
2022-11-29T16:06:42.435Z,100783.40
2022-11-29T16:09:18.100Z,100778.05
2022-11-29T16:11:49.514Z,100778.03
2022-11-29T16:14:24.751Z,100777.03
2022-11-29T16:16:58.073Z,100780.50
2022-11-29T16:19:31.256Z,100776.52
2022-11-29T16:22:15.011Z,100775.59
2022-11-29T16:24:56.587Z,100776.39
2022-11-29T16:27:34.969Z,100780.08
2022-11-29T16:30:08.888Z,100780.11
2022-11-29T16:32:47.259Z,100778.67
2022-11-29T16:35:33.428Z,100780.31
2022-11-29T16:38:08.646Z,100785.05
2022-11-29T16:40:39.795Z,100786.72
2022-11-29T16:43:26.143Z,100787.21
2022-11-29T16:46:26.493Z,100790.47
2022-11-29T16:48:58.653Z,100793.23
2022-11-29T16:51:38.988Z,100797.96
2022-11-29T16:54:23.836Z,100798.70
2022-11-29T16:56:56.226Z,100802.16
2022-11-29T16:59:28.642Z,100798.96
2022-11-29T17:01:58.693Z,100803.20
2022-11-29T17:04:29.033Z,100807.72
2022-11-29T17:06:59.174Z,100810.21
2022-11-29T17:09:33.101Z,100809.39
2022-11-29T17:12:03.981Z,100811.56
2022-11-29T17:14:33.842Z,100817.03
2022-11-29T17:17:04.363Z,100811.18
2022-11-29T17:19:34.012Z,100813.05
2022-11-29T17:22:04.993Z,100813.05
2022-11-29T17:24:35.802Z,100814.06
2022-11-29T17:27:06.701Z,100812.47
2022-11-29T17:29:36.783Z,100812.64
2022-11-29T17:32:06.890Z,100820.13
2022-11-29T17:34:37.121Z,100812.47
2022-11-29T17:37:07.343Z,100820.02
2022-11-29T17:39:39.197Z,100823.05
2022-11-29T17:42:12.766Z,100822.80
2022-11-29T17:44:44.893Z,100826.12
2022-11-29T17:47:22.501Z,100831.57
2022-11-29T17:49:52.425Z,100832.30
2022-11-29T17:52:22.411Z,100837.74
2022-11-29T17:54:52.181Z,100835.55
2022-11-29T17:57:26.259Z,100839.50
2022-11-29T17:59:56.648Z,100841.92
2022-11-29T18:02:26.539Z,100845.69
2022-11-29T18:04:57.352Z,100845.59
2022-11-29T18:07:27.759Z,100849.49
2022-11-29T18:09:58.764Z,100851.70
2022-11-29T18:12:28.786Z,100849.81
2022-11-29T18:15:00.893Z,100856.18
2022-11-29T18:17:30.932Z,100859.55
2022-11-29T18:20:01.744Z,100858.84
2022-11-29T18:22:31.631Z,100863.27
2022-11-29T18:25:36.493Z,100860.80
2022-11-29T18:27:36.105Z,100868.59
2022-11-29T18:30:09.544Z,100862.16
2022-11-29T18:32:39.687Z,100864.17
2022-11-29T18:35:11.800Z,100864.01
2022-11-29T18:38:13.601Z,100864.27
2022-11-29T18:40:14.780Z,100868.43
2022-11-29T18:42:43.561Z,100867.75
2022-11-29T18:45:13.368Z,100871.72
2022-11-29T18:47:46.814Z,100869.95
2022-11-29T18:50:16.447Z,100867.08
2022-11-29T18:52:53.812Z,100870.95
2022-11-29T18:55:31.438Z,100875.09
2022-11-29T18:58:01.325Z,100884.66
2022-11-29T19:00:32.532Z,100883.45
2022-11-29T19:03:02.822Z,100891.55
2022-11-29T19:05:32.607Z,100892.91
2022-11-29T19:08:03.572Z,100896.62
2022-11-29T19:10:33.532Z,100902.97
2022-11-29T19:13:06.398Z,100898.49
2022-11-29T19:15:36.764Z,100900.80
2022-11-29T19:18:06.814Z,100908.78
2022-11-29T19:20:36.628Z,100907.56
2022-11-29T19:23:06.638Z,100910.33
2022-11-29T19:25:37.609Z,100912.13
2022-11-29T19:28:13.785Z,100920.52
2022-11-29T19:30:40.247Z,100916.20
2022-11-29T19:33:10.122Z,100921.58
2022-11-29T19:35:40.591Z,100917.14
2022-11-29T19:38:10.405Z,100927.02
2022-11-29T19:40:43.312Z,100931.31
2022-11-29T19:43:15.543Z,100928.66
2022-11-29T19:45:45.448Z,100925.64
2022-11-29T19:48:15.140Z,100927.88
2022-11-29T19:50:44.957Z,100923.44
2022-11-29T19:53:16.343Z,100929.71
2022-11-29T19:55:45.236Z,100929.83
2022-11-29T19:58:17.787Z,100923.94
2022-11-29T20:00:47.845Z,100924.84
2022-11-29T20:03:17.456Z,100930.91
2022-11-29T20:05:55.511Z,100930.91
2022-11-29T20:08:26.049Z,100933.52
2022-11-29T20:10:56.142Z,100935.71
2022-11-29T20:13:25.952Z,100935.27
2022-11-29T20:15:55.919Z,100937.09
2022-11-29T20:18:27.260Z,100931.02
2022-11-29T20:20:57.112Z,100940.45
2022-11-29T20:23:29.016Z,100944.13
2022-11-29T20:26:01.021Z,100944.13
2022-11-29T20:28:31.344Z,100949.94
2022-11-29T20:31:06.128Z,100946.30
2022-11-29T20:33:36.223Z,100954.78
2022-11-29T20:36:19.789Z,100944.91
2022-11-29T20:38:53.790Z,100944.91
2022-11-29T20:41:35.357Z,100951.91
2022-11-29T20:44:06.500Z,100947.10
2022-11-29T20:46:54.611Z,100952.13
2022-11-29T20:49:24.531Z,100954.92
2022-11-29T20:52:01.014Z,100956.48
2022-11-29T20:54:31.904Z,100953.08
2022-11-29T20:57:01.762Z,100954.66
2022-11-29T20:59:31.595Z,100955.21
2022-11-29T21:02:02.650Z,100959.05
2022-11-29T21:04:32.440Z,100964.43
2022-11-29T21:07:02.225Z,100965.70
2022-11-29T21:09:32.226Z,100962.75
2022-11-29T21:12:04.395Z,100971.08
2022-11-29T21:14:34.626Z,100975.89
2022-11-29T21:17:05.326Z,100975.44
2022-11-29T21:19:36.798Z,100983.79
2022-11-29T21:22:19.881Z,100979.13
2022-11-29T21:25:10.897Z,100984.81
2022-11-29T21:27:42.205Z,100985.44
2022-11-29T21:30:23.563Z,100983.22
2022-11-29T21:32:55.569Z,100989.02
2022-11-29T21:35:26.346Z,100985.59
2022-11-29T21:37:59.348Z,100989.81
2022-11-29T21:40:29.792Z,100990.34
2022-11-29T21:43:00.710Z,100987.59
2022-11-29T21:45:30.666Z,100992.86
2022-11-29T21:48:02.052Z,100997.73
2022-11-29T21:50:31.937Z,100998.80
2022-11-29T21:53:02.091Z,100997.62
2022-11-29T21:55:32.722Z,101001.64
2022-11-29T21:58:02.971Z,100996.37
2022-11-29T22:00:37.296Z,100997.88
2022-11-29T22:03:04.639Z,100997.02
2022-11-29T22:05:34.609Z,100994.56
2022-11-29T22:08:05.401Z,100997.69
2022-11-29T22:10:35.371Z,100999.02
2022-11-29T22:13:12.445Z,100999.16
2022-11-29T22:15:44.427Z,101002.25
2022-11-29T22:18:19.808Z,100998.27
2022-11-29T22:20:50.887Z,100999.59
2022-11-29T22:23:20.816Z,100992.73
2022-11-29T22:25:50.810Z,100997.56
2022-11-29T22:28:24.363Z,100995.48
2022-11-29T22:30:54.227Z,100994.19
2022-11-29T22:33:24.105Z,100997.67
2022-11-29T22:35:54.634Z,101002.89
2022-11-29T22:38:26.598Z,100999.44
2022-11-29T22:41:02.085Z,100995.64
2022-11-29T22:43:33.103Z,100997.85
2022-11-29T22:46:17.570Z,101010.14
2022-11-29T22:48:55.335Z,101003.72
2022-11-29T22:51:27.380Z,101005.06
2022-11-29T22:53:58.906Z,101012.44
2022-11-29T22:56:31.583Z,101006.45
2022-11-29T22:59:01.659Z,101005.61
2022-11-29T23:01:33.905Z,101005.56
2022-11-29T23:04:07.180Z,101009.14
2022-11-29T23:06:41.284Z,101004.89
2022-11-29T23:09:16.589Z,101004.89
2022-11-29T23:11:49.286Z,101008.23
2022-11-29T23:14:22.333Z,101002.24
2022-11-29T23:16:54.646Z,101001.41
2022-11-29T23:19:24.371Z,101005.35
2022-11-29T23:21:55.889Z,101001.89
2022-11-29T23:24:25.715Z,101003.98
2022-11-29T23:26:57.104Z,101001.98
2022-11-29T23:29:27.020Z,101006.33
2022-11-29T23:31:56.945Z,101003.78
2022-11-29T23:34:26.667Z,101002.95
2022-11-29T23:37:04.522Z,101009.50
2022-11-29T23:39:37.508Z,101003.45
2022-11-29T23:42:07.147Z,101004.70
2022-11-29T23:44:36.982Z,101009.92
2022-11-29T23:47:07.145Z,101012.98
2022-11-29T23:49:38.617Z,101008.23
2022-11-29T23:52:08.409Z,101008.27
2022-11-29T23:54:38.249Z,101004.84
2022-11-29T23:57:08.112Z,101005.30
2022-11-29T23:59:38.117Z,101012.23
